Time;durP1;ratioP1;P1;durP2;ratioP2;P2;SDS_P1;SDS_P2;PMS_P1;PMS_P2;Temp;Humidity;BMP_temperature;BMP_pressure;BME280_temperature;BME280_humidity;BME280_pressure;Samples;Min_cycle;Max_cycle;Signal;HPM_P1;HPM_P2
2023/04/10 00:01:59;;;;;;;6.80;5.28;;;;;;;6.30;82.73;101713.66;5999595;23;20027;-72
2023/04/10 00:04:27;;;;;;;7.07;5.97;;;;;;;6.28;82.15;101705.00;5992244;23;20454;-71
2023/04/10 00:06:54;;;;;;;5.68;5.25;;;;;;;5.93;81.91;101662.16;5999810;23;20015;-71
2023/04/10 00:09:20;;;;;;;5.22;4.72;;;;;;;5.30;83.11;101553.84;5978335;23;20412;-70
2023/04/10 00:11:47;;;;;;;6.20;5.70;;;;;;;6.24;84.10;101729.41;6001042;23;20589;-71
2023/04/10 00:14:13;;;;;;;5.82;5.22;;;;;;;5.93;84.16;101662.16;6001317;23;20047;-71
2023/04/10 00:16:39;;;;;;;5.80;5.30;;;;;;;6.26;85.30;101696.34;5995938;23;20019;-71
2023/04/10 00:19:06;;;;;;;5.68;5.28;;;;;;;6.23;85.77;101701.59;6008235;23;20039;-72
2023/04/10 00:21:33;;;;;;;5.60;5.22;;;;;;;5.74;86.12;101624.28;5991777;23;20026;-73
2023/04/10 00:23:59;;;;;;;5.70;5.20;;;;;;;5.93;86.95;101666.50;6007869;23;20039;-71
2023/04/10 00:26:26;;;;;;;5.90;5.35;;;;;;;6.01;85.97;101667.25;5993559;23;20092;-70
2023/04/10 00:28:52;;;;;;;5.82;5.25;;;;;;;6.28;87.03;101709.38;5993283;23;20050;-71
2023/04/10 00:31:19;;;;;;;8.63;5.53;;;;;;;6.17;87.39;101692.19;5999982;23;20096;-71
2023/04/10 00:33:45;;;;;;;7.50;6.80;;;;;;;5.69;86.83;101610.47;5984928;23;20011;-71
2023/04/10 00:36:12;;;;;;;6.60;5.97;;;;;;;5.91;86.14;101643.09;5999602;23;20447;-71
2023/04/10 00:38:38;;;;;;;6.05;5.55;;;;;;;6.24;85.93;101698.13;6003053;23;20115;-70
2023/04/10 00:41:05;;;;;;;5.82;5.22;;;;;;;6.26;87.02;101696.34;6002308;23;20038;-71
2023/04/10 00:43:32;;;;;;;5.25;4.88;;;;;;;6.08;86.82;101662.81;5989030;23;20044;-72
2023/04/10 00:45:58;;;;;;;7.80;6.05;;;;;;;6.32;87.50;101691.03;6003948;23;20026;-71
2023/04/10 00:48:25;;;;;;;5.82;5.32;;;;;;;6.27;87.02;101682.41;5994968;23;20038;-72
2023/04/10 00:50:52;;;;;;;5.88;5.20;;;;;;;6.25;86.32;101686.78;5996793;23;20031;-72
2023/04/10 00:53:18;;;;;;;6.90;6.25;;;;;;;6.24;86.50;101690.31;5977563;23;20046;-73
2023/04/10 00:55:45;;;;;;;6.43;5.82;;;;;;;5.77;87.45;101609.47;5990385;23;20035;-73
2023/04/10 00:58:13;;;;;;;6.82;6.25;;;;;;;5.76;87.68;101614.69;6005232;23;20033;-71
2023/04/10 01:00:42;;;;;;;10.93;5.30;;;;;;;6.23;87.91;101685.13;5997309;23;20038;-72
2023/04/10 01:03:11;;;;;;;5.95;5.53;;;;;;;5.92;87.63;101642.19;5998199;23;20038;-71
2023/04/10 01:05:49;;;;;;;5.57;5.05;;;;;;;6.16;87.77;101685.22;5989470;23;20042;-71
2023/04/10 01:08:27;;;;;;;7.97;6.10;;;;;;;6.21;88.82;101686.88;5997982;23;20015;-72
2023/04/10 01:11:00;;;;;;;6.53;5.70;;;;;;;6.21;88.89;101682.53;5994076;23;20031;-71
2023/04/10 01:13:48;;;;;;;6.95;5.65;;;;;;;6.21;88.32;101687.75;5991140;23;20093;-71
2023/04/10 01:16:21;;;;;;;5.80;5.32;;;;;;;6.25;89.01;101683.34;5993115;23;20032;-71
2023/04/10 01:18:58;;;;;;;7.15;6.13;;;;;;;6.28;88.83;101689.38;6000842;23;20039;-70
2023/04/10 01:21:26;;;;;;;6.97;5.75;;;;;;;5.90;88.30;101623.13;5990620;23;20503;-71
2023/04/10 01:24:06;;;;;;;6.55;6.05;;;;;;;6.27;88.09;101666.78;6008325;23;20027;-71
2023/04/10 01:27:08;;;;;;;6.57;6.07;;;;;;;6.30;88.43;101674.56;5995698;23;20075;-72
2023/04/10 01:29:37;;;;;;;5.90;5.40;;;;;;;6.34;88.61;101678.81;5997239;23;20026;-72
2023/04/10 01:32:10;;;;;;;11.93;5.95;;;;;;;6.32;88.24;101666.72;5999277;23;20032;-71
2023/04/10 01:34:43;;;;;;;9.00;6.30;;;;;;;5.99;88.13;101617.78;5998636;23;20081;-71
2023/04/10 01:37:23;;;;;;;10.43;6.30;;;;;;;5.96;88.42;101596.13;6001215;23;20107;-71
2023/04/10 01:39:55;;;;;;;9.50;5.93;;;;;;;5.87;89.02;101609.28;5996469;23;20021;-72
2023/04/10 01:42:22;;;;;;;5.93;5.40;;;;;;;6.09;88.31;101628.03;5996410;23;20539;-71
2023/04/10 01:44:51;;;;;;;6.18;5.57;;;;;;;5.95;88.64;101591.81;5995071;23;20303;-71
2023/04/10 01:47:18;;;;;;;8.07;5.57;;;;;;;6.21;88.48;101633.00;5999658;23;20042;-72
2023/04/10 01:49:46;;;;;;;6.80;5.20;;;;;;;6.34;88.75;101654.50;6005826;23;20027;-72
2023/04/10 01:52:14;;;;;;;6.45;5.97;;;;;;;5.91;88.75;101579.69;5993875;23;20230;-71
2023/04/10 01:54:44;;;;;;;12.90;5.80;;;;;;;5.92;88.12;101578.81;6001183;23;20051;-73
2023/04/10 01:57:13;;;;;;;5.82;5.32;;;;;;;6.17;89.25;101631.34;6001339;23;20028;-71
2023/04/10 01:59:41;;;;;;;6.13;5.53;;;;;;;6.21;88.90;101637.38;5997511;23;20027;-72
2023/04/10 02:02:10;;;;;;;6.65;6.05;;;;;;;6.25;89.40;101649.44;6002730;23;20026;-71
2023/04/10 02:04:37;;;;;;;6.95;6.25;;;;;;;5.86;89.88;101597.16;5994403;23;20090;-72
2023/04/10 02:07:28;;;;;;;6.65;6.07;;;;;;;6.16;88.99;101633.09;5999551;23;20022;-72
2023/04/10 02:10:11;;;;;;;5.80;5.32;;;;;;;5.80;89.19;101583.34;5972180;23;20030;-71
2023/04/10 02:12:44;;;;;;;8.05;6.13;;;;;;;5.84;90.01;101586.78;6000803;23;20040;-71
2023/04/10 02:15:11;;;;;;;6.00;5.40;;;;;;;6.06;90.44;101636.78;6001041;23;20100;-71
2023/04/10 02:17:39;;;;;;;7.85;6.15;;;;;;;6.12;90.47;101644.47;6006377;23;20026;-71
2023/04/10 02:20:07;;;;;;;7.55;6.75;;;;;;;5.76;90.32;101580.84;5996103;23;20300;-71
2023/04/10 02:22:35;;;;;;;6.03;5.53;;;;;;;5.82;90.49;101588.53;6008947;23;20042;-72
2023/04/10 02:25:04;;;;;;;8.65;6.25;;;;;;;6.05;90.37;101634.19;6001602;23;20035;-71
2023/04/10 02:27:35;;;;;;;7.07;6.20;;;;;;;5.96;90.44;101636.06;5969309;23;20042;-72
2023/04/10 02:30:03;;;;;;;6.68;6.07;;;;;;;5.90;92.12;101638.75;5996192;23;20106;-71
2023/04/10 02:32:30;;;;;;;7.80;5.32;;;;;;;5.87;93.10;101650.97;6001705;23;20042;-70
2023/04/10 02:34:57;;;;;;;7.25;6.55;;;;;;;5.77;93.50;101648.53;5998225;23;20032;-73
2023/04/10 02:37:23;;;;;;;9.20;5.13;;;;;;;5.76;93.86;101653.78;5996931;23;20843;-72
2023/04/10 02:39:50;;;;;;;7.30;6.70;;;;;;;5.44;94.30;101613.50;5984398;23;20065;-72
2023/04/10 02:42:16;;;;;;;5.78;5.25;;;;;;;5.76;94.39;101654.63;5996205;23;20043;-71
2023/04/10 02:44:43;;;;;;;5.85;5.45;;;;;;;5.71;94.11;101634.75;5990626;23;20043;-72
2023/04/10 02:47:10;;;;;;;11.00;7.13;;;;;;;5.77;93.71;101647.66;6002925;23;20085;-71
2023/04/10 02:49:36;;;;;;;8.40;7.47;;;;;;;5.76;94.28;101639.00;6001572;23;20545;-71
2023/04/10 02:52:03;;;;;;;6.35;5.85;;;;;;;5.15;93.89;101548.88;5996033;23;20023;-71
2023/04/10 02:54:29;;;;;;;5.97;5.43;;;;;;;5.67;94.18;101628.72;5992139;23;20098;-70
2023/04/10 02:56:56;;;;;;;5.13;4.72;;;;;;;5.59;94.32;101636.69;6000767;23;20054;-70
2023/04/10 02:59:23;;;;;;;5.55;4.72;;;;;;;5.29;95.18;101579.88;5995480;23;20039;-70
2023/04/10 03:01:49;;;;;;;5.93;5.53;;;;;;;5.54;95.92;101630.69;5999053;23;20082;-71
2023/04/10 03:04:16;;;;;;;5.93;5.35;;;;;;;5.08;95.93;101558.53;5998663;23;20031;-71
2023/04/10 03:06:42;;;;;;;5.97;5.53;;;;;;;5.38;95.88;101613.59;5977302;23;20087;-71
2023/04/10 03:09:09;;;;;;;5.82;5.32;;;;;;;5.13;96.67;101572.34;6000141;23;20565;-70
2023/04/10 03:11:35;;;;;;;5.97;5.47;;;;;;;5.31;97.25;101607.63;5998159;23;20067;-70
2023/04/10 03:14:02;;;;;;;7.45;6.07;;;;;;;5.22;98.01;101592.16;5994944;23;20034;-71
2023/04/10 03:16:29;;;;;;;7.25;6.57;;;;;;;5.32;97.29;101606.75;5996557;23;20007;-71
2023/04/10 03:18:55;;;;;;;6.93;6.43;;;;;;;5.34;98.26;101604.97;5996619;23;20095;-71
2023/04/10 03:21:22;;;;;;;9.38;6.00;;;;;;;5.45;96.88;101615.19;5998871;23;20033;-71
2023/04/10 03:23:48;;;;;;;8.13;5.50;;;;;;;5.29;97.58;101598.09;5986468;23;20042;-71
2023/04/10 03:26:15;;;;;;;5.43;4.40;;;;;;;5.04;98.01;101545.59;6006179;23;20027;-71
2023/04/10 03:28:41;;;;;;;6.63;5.95;;;;;;;5.29;97.94;101599.00;6002156;23;20093;-70
2023/04/10 03:31:08;;;;;;;7.03;5.88;;;;;;;5.27;98.96;101602.47;5998124;23;20133;-71
2023/04/10 03:33:35;;;;;;;5.80;5.30;;;;;;;5.25;98.95;101607.72;5996930;23;20023;-72
2023/04/10 03:36:02;;;;;;;6.60;5.95;;;;;;;5.25;99.33;101604.25;6000688;23;20027;-72
2023/04/10 03:38:29;;;;;;;5.65;5.15;;;;;;;4.83;99.67;101523.38;5997560;23;20587;-70
2023/04/10 03:40:55;;;;;;;5.65;5.15;;;;;;;4.86;100.00;101533.75;5999644;23;20399;-71
2023/04/10 03:43:23;;;;;;;6.38;5.20;;;;;;;5.31;99.43;101596.34;5991924;23;20055;-73
2023/04/10 03:45:50;;;;;;;7.70;5.03;;;;;;;5.31;99.22;101591.13;5992358;23;20027;-71
2023/04/10 03:48:16;;;;;;;5.82;5.43;;;;;;;5.22;98.75;101570.47;5997520;23;20035;-71
2023/04/10 03:50:43;;;;;;;7.05;6.30;;;;;;;5.19;98.73;101577.47;5977772;23;20043;-70
2023/04/10 03:53:09;;;;;;;6.55;6.03;;;;;;;5.10;100.00;101564.56;6001688;23;20090;-70
2023/04/10 03:55:37;;;;;;;5.88;5.40;;;;;;;5.09;99.23;101575.00;5969073;23;20035;-73
2023/04/10 03:58:04;;;;;;;6.28;5.68;;;;;;;4.92;99.94;101555.31;5998480;23;20030;-73
2023/04/10 04:00:31;;;;;;;6.03;5.53;;;;;;;4.56;100.00;101496.91;5992397;23;20115;-71
2023/04/10 04:02:59;;;;;;;7.07;5.97;;;;;;;5.14;100.00;101591.41;5998057;23;20108;-71
2023/04/10 04:05:26;;;;;;;5.88;5.30;;;;;;;4.77;100.00;101524.31;5997753;23;20027;-71
2023/04/10 04:07:52;;;;;;;13.05;5.45;;;;;;;5.08;100.00;101579.34;6003662;23;20016;-71
2023/04/10 04:10:19;;;;;;;5.45;4.88;;;;;;;5.12;99.58;101578.41;5986734;23;20037;-72
2023/04/10 04:12:45;;;;;;;14.38;13.65;;;;;;;4.64;99.72;101510.66;5846591;23;20245;-71
2023/04/10 04:15:12;;;;;;;5.18;4.65;;;;;;;4.53;100.00;101491.72;5997695;23;20415;-69
2023/04/10 04:17:38;;;;;;;5.75;5.30;;;;;;;4.96;99.27;101571.72;5996450;23;20038;-70
2023/04/10 04:20:05;;;;;;;5.00;4.70;;;;;;;3.88;99.72;101387.88;5994041;23;20042;-72
2023/04/10 04:22:32;;;;;;;8.18;5.38;;;;;;;4.76;99.28;101527.81;5989799;23;20027;-70
2023/04/10 04:24:58;;;;;;;6.15;5.60;;;;;;;4.99;99.41;101571.66;5998141;23;20113;-72
2023/04/10 04:27:25;;;;;;;4.63;4.32;;;;;;;5.06;98.81;101568.09;6001213;23;20079;-71
2023/04/10 04:29:51;;;;;;;11.85;5.60;;;;;;;5.05;99.03;101565.53;5970070;23;20110;-72
2023/04/10 04:32:17;;;;;;;6.03;5.45;;;;;;;4.57;98.37;101480.41;5985951;23;20097;-70
2023/04/10 04:34:44;;;;;;;4.90;4.45;;;;;;;5.06;98.89;101560.31;6000069;23;20035;-72
2023/04/10 04:37:10;;;;;;;5.43;4.95;;;;;;;5.04;98.89;101550.81;5996559;23;20014;-72
2023/04/10 04:39:37;;;;;;;5.65;4.82;;;;;;;4.65;98.90;101498.50;5997168;23;21175;-71
2023/04/10 04:42:03;;;;;;;5.80;5.30;;;;;;;4.61;98.80;101476.91;5992270;23;20360;-72
2023/04/10 04:44:30;;;;;;;5.80;5.30;;;;;;;5.00;99.02;101550.00;5998654;23;20109;-71
2023/04/10 04:46:57;;;;;;;6.90;6.28;;;;;;;4.98;99.95;101547.41;5998203;23;20095;-71
2023/04/10 04:49:23;;;;;;;6.22;5.72;;;;;;;4.82;98.89;101519.91;5997224;23;20044;-72
2023/04/10 04:51:49;;;;;;;4.53;4.22;;;;;;;4.92;99.19;101552.72;5996854;23;20027;-72
2023/04/10 04:54:16;;;;;;;7.50;5.97;;;;;;;4.79;100.00;101554.63;6000015;23;20123;-70
2023/04/10 04:56:42;;;;;;;9.13;4.70;;;;;;;4.22;100.00;101445.41;6000654;23;20042;-68
2023/04/10 04:59:09;;;;;;;5.35;4.95;;;;;;;4.88;99.74;101566.63;5991616;23;20031;-71
2023/04/10 05:01:35;;;;;;;5.75;5.15;;;;;;;4.78;100.00;101550.31;5987180;23;20007;-70
2023/04/10 05:04:02;;;;;;;5.82;5.43;;;;;;;4.83;100.00;101563.25;6000302;23;20026;-70
2023/04/10 05:06:30;;;;;;;5.32;4.82;;;;;;;4.90;100.00;101570.06;5986626;23;20027;-71
2023/04/10 05:08:56;;;;;;;5.90;5.45;;;;;;;4.94;100.00;101573.50;6001172;23;20035;-71
2023/04/10 05:11:23;;;;;;;6.63;5.05;;;;;;;4.40;100.00;101476.31;5992845;23;20082;-70
2023/04/10 05:13:50;;;;;;;4.97;4.68;;;;;;;5.04;100.00;101566.41;5999580;23;20029;-71
2023/04/10 05:16:16;;;;;;;6.03;5.53;;;;;;;4.63;100.00;101495.94;5998272;23;20019;-73
2023/04/10 05:18:43;;;;;;;7.03;6.43;;;;;;;5.00;100.00;101542.19;5999323;23;20023;-71
2023/04/10 05:21:09;;;;;;;5.38;5.05;;;;;;;5.14;99.62;101550.63;5999653;23;20198;-71
2023/04/10 05:23:36;;;;;;;5.95;5.50;;;;;;;5.26;98.22;101544.38;5997396;23;20206;-70
2023/04/10 05:26:03;;;;;;;4.93;4.63;;;;;;;5.47;97.24;101564.00;5998711;23;20027;-71
2023/04/10 05:28:29;;;;;;;5.40;4.95;;;;;;;5.56;97.09;101563.81;6001835;23;20081;-72
2023/04/10 05:30:55;;;;;;;5.72;5.00;;;;;;;5.68;96.09;101562.75;5998976;23;20024;-71
2023/04/10 05:33:22;;;;;;;6.45;5.03;;;;;;;5.69;94.29;101547.97;5997578;23;20039;-73
2023/04/10 05:35:48;;;;;;;5.03;4.63;;;;;;;5.90;94.62;101571.03;5997241;23;20098;-72
2023/04/10 05:38:15;;;;;;;7.38;5.70;;;;;;;6.04;94.10;101577.75;5999260;23;20046;-72
2023/04/10 05:40:44;;;;;;;5.88;5.50;;;;;;;6.18;93.01;101581.81;5992196;23;20047;-71
2023/04/10 05:43:11;;;;;;;5.93;4.75;;;;;;;5.47;92.05;101439.03;5994382;23;20023;-71
2023/04/10 05:45:37;;;;;;;5.18;4.78;;;;;;;6.39;90.70;101564.88;6001552;23;20035;-71
2023/04/10 05:48:06;;;;;;;6.38;5.22;;;;;;;6.08;89.14;101489.06;5995538;23;20022;-72
2023/04/10 05:50:34;;;;;;;6.80;6.07;;;;;;;6.61;88.13;101540.94;5984869;23;20031;-71
2023/04/10 05:53:00;;;;;;;5.75;5.25;;;;;;;6.67;86.42;101534.72;6001535;23;20108;-72
2023/04/10 05:55:30;;;;;;;6.78;5.95;;;;;;;6.81;85.79;101550.06;5994010;23;20019;-72
2023/04/10 05:57:56;;;;;;;6.78;6.28;;;;;;;6.81;84.23;101540.50;5997075;23;20755;-71
2023/04/10 06:00:23;;;;;;;7.28;5.78;;;;;;;6.81;83.98;101523.97;6001513;23;20105;-72
2023/04/10 06:02:49;;;;;;;6.60;5.90;;;;;;;6.88;83.34;101536.00;5994054;23;20038;-72
2023/04/10 06:05:16;;;;;;;5.90;5.50;;;;;;;6.86;83.98;101509.94;6001684;23;20633;-71
2023/04/10 06:07:42;;;;;;;6.13;5.47;;;;;;;6.45;83.01;101445.69;5991992;23;20715;-71
2023/04/10 06:10:09;;;;;;;7.93;6.07;;;;;;;7.08;82.55;101525.09;5969923;23;20051;-71
2023/04/10 06:12:36;;;;;;;6.05;5.47;;;;;;;6.96;81.89;101487.09;5971886;23;20019;-71
2023/04/10 06:15:02;;;;;;;6.00;5.50;;;;;;;7.26;81.22;101503.75;5971515;23;20054;-71
2023/04/10 06:17:29;;;;;;;5.90;5.38;;;;;;;7.21;80.57;101497.78;5968790;23;20023;-74
2023/04/10 06:19:58;;;;;;;6.47;5.75;;;;;;;7.39;80.24;101499.06;5984486;23;20038;-71
2023/04/10 06:22:25;;;;;;;7.65;6.95;;;;;;;7.04;79.61;101432.09;5995303;23;20047;-71
2023/04/10 06:24:52;;;;;;;8.35;6.45;;;;;;;7.63;79.41;101509.75;5997383;23;20070;-72
2023/04/10 06:27:18;;;;;;;11.10;5.88;;;;;;;7.82;78.31;101512.72;5990642;23;20039;-70
2023/04/10 06:29:44;;;;;;;7.43;6.13;;;;;;;7.94;77.72;101515.00;5980108;23;20744;-71
2023/04/10 06:32:11;;;;;;;6.68;5.90;;;;;;;8.11;76.27;101497.06;5990842;23;20017;-70
2023/04/10 06:34:37;;;;;;;6.07;5.53;;;;;;;8.05;74.69;101457.19;5996374;23;20042;-70
2023/04/10 06:37:04;;;;;;;6.85;6.07;;;;;;;8.36;73.99;101472.81;6003615;23;20085;-71
2023/04/10 06:39:30;;;;;;;6.65;6.05;;;;;;;8.59;73.28;101479.97;6000768;23;20114;-69
2023/04/10 06:41:57;;;;;;;6.05;5.55;;;;;;;8.90;71.82;101490.34;6003905;23;20121;-70
2023/04/10 06:44:23;;;;;;;6.40;5.80;;;;;;;8.96;70.88;101470.94;5997269;23;20073;-72
2023/04/10 06:46:49;;;;;;;7.18;6.47;;;;;;;9.23;69.47;101468.31;5994831;23;20023;-70
2023/04/10 06:49:16;;;;;;;11.05;6.50;;;;;;;9.00;68.53;101386.16;6005529;23;20027;-72
2023/04/10 06:51:44;;;;;;;6.57;6.00;;;;;;;9.45;67.91;101429.13;5993774;23;20051;-69
2023/04/10 06:54:11;;;;;;;7.35;6.38;;;;;;;9.47;66.78;101408.97;5990104;23;20024;-70
2023/04/10 06:56:37;;;;;;;5.97;5.38;;;;;;;9.61;66.85;101413.72;5999400;23;20008;-70
2023/04/10 06:59:04;;;;;;;9.95;5.60;;;;;;;9.79;65.93;101411.25;5975156;23;20091;-73
2023/04/10 07:01:30;;;;;;;6.82;5.78;;;;;;;10.03;64.82;101411.22;6002873;23;20157;-73
2023/04/10 07:03:57;;;;;;;7.15;6.47;;;;;;;10.21;64.18;101409.66;5986284;23;20051;-71
2023/04/10 07:06:26;;;;;;;9.70;8.60;;;;;;;10.23;62.85;101384.22;5989645;23;20020;-70
2023/04/10 07:08:52;;;;;;;7.25;6.65;;;;;;;10.19;62.77;101380.00;5970173;23;20497;-71
2023/04/10 07:11:19;;;;;;;10.05;5.50;;;;;;;10.25;62.38;101360.56;5963768;23;20643;-72
2023/04/10 07:13:52;;;;;;;5.78;5.38;;;;;;;10.42;61.89;101375.63;5998573;23;20031;-71
2023/04/10 07:16:19;;;;;;;7.05;6.00;;;;;;;10.61;61.04;101345.09;5991761;23;20550;-72
2023/04/10 07:18:45;;;;;;;7.45;6.65;;;;;;;10.69;61.03;101353.50;5996952;23;20050;-71
2023/04/10 07:21:13;;;;;;;7.10;6.43;;;;;;;10.29;60.14;101258.06;6001628;23;20038;-70
2023/04/10 07:23:39;;;;;;;9.07;6.55;;;;;;;10.66;59.75;101289.78;6003346;23;20015;-71
2023/04/10 07:26:06;;;;;;;7.32;6.63;;;;;;;10.71;59.40;101278.16;5997545;23;20070;-70
2023/04/10 07:28:32;;;;;;;6.80;6.18;;;;;;;10.83;58.88;101291.69;6000701;23;20091;-70
2023/04/10 07:30:59;;;;;;;6.70;6.07;;;;;;;10.97;59.20;101310.31;5997904;23;20094;-70
2023/04/10 07:33:25;;;;;;;8.43;5.95;;;;;;;10.94;58.84;101300.81;6002946;23;20051;-70
2023/04/10 07:35:52;;;;;;;7.47;6.53;;;;;;;10.64;58.71;101250.47;5988253;23;20039;-70
2023/04/10 07:38:19;;;;;;;10.52;6.28;;;;;;;10.04;59.01;101160.34;6005392;23;20063;-71
2023/04/10 07:40:46;;;;;;;8.20;6.30;;;;;;;10.95;58.73;101301.66;6003471;23;20042;-71
2023/04/10 07:43:13;;;;;;;12.70;6.22;;;;;;;10.97;58.14;101295.41;5995141;23;20023;-72
2023/04/10 07:45:40;;;;;;;6.22;5.82;;;;;;;10.65;58.13;101220.69;5998112;23;20091;-71
2023/04/10 07:48:06;;;;;;;7.03;6.07;;;;;;;10.55;58.10;101204.50;6003116;23;20027;-71
2023/04/10 07:50:34;;;;;;;6.45;5.85;;;;;;;11.29;58.00;101308.88;6003178;23;20034;-71
2023/04/10 07:53:06;;;;;;;9.45;7.22;;;;;;;11.31;58.10;101287.78;6002340;23;20029;-72
2023/04/10 07:55:41;;;;;;;7.85;7.00;;;;;;;10.92;58.08;101217.75;5970855;23;20069;-71
2023/04/10 07:58:07;;;;;;;10.13;6.63;;;;;;;11.73;57.13;101300.69;5988796;23;20015;-71
2023/04/10 08:00:36;;;;;;;7.20;6.50;;;;;;;12.01;56.45;101303.81;6003510;23;20031;-71
2023/04/10 08:03:03;;;;;;;6.60;6.05;;;;;;;12.12;56.48;101291.00;5996540;23;20050;-71
2023/04/10 08:05:30;;;;;;;6.45;5.90;;;;;;;12.10;55.81;101251.59;5989187;23;20011;-70
2023/04/10 08:07:57;;;;;;;9.48;6.07;;;;;;;12.23;55.82;101261.50;5996312;23;20317;-70
2023/04/10 08:10:24;;;;;;;6.15;5.65;;;;;;;12.23;55.16;101230.78;5996852;23;20098;-71
2023/04/10 08:12:50;;;;;;;7.35;6.15;;;;;;;12.35;54.09;101205.63;5997619;23;20061;-71
2023/04/10 08:15:17;;;;;;;7.82;6.95;;;;;;;12.16;54.47;101187.28;5996572;23;20043;-71
2023/04/10 08:17:43;;;;;;;7.25;6.45;;;;;;;12.05;54.29;101173.84;5996660;23;20011;-70
2023/04/10 08:20:10;;;;;;;6.93;5.97;;;;;;;12.58;54.42;101228.13;6000001;23;20031;-71
2023/04/10 08:22:37;;;;;;;6.55;5.95;;;;;;;12.55;54.29;101239.69;5974521;23;20036;-70
2023/04/10 08:25:04;;;;;;;6.32;5.88;;;;;;;12.67;54.20;101264.53;5995903;23;20187;-72
2023/04/10 08:27:30;;;;;;;6.80;6.18;;;;;;;11.91;54.21;101082.50;6005388;23;20399;-72
2023/04/10 08:29:57;;;;;;;6.97;6.25;;;;;;;12.66;54.04;101204.88;6000312;23;20019;-70
2023/04/10 08:32:25;;;;;;;10.25;6.32;;;;;;;12.84;53.65;101199.56;5995178;23;20690;-71
2023/04/10 08:34:51;;;;;;;10.27;7.25;;;;;;;13.12;53.52;101222.63;5999332;23;20024;-73
2023/04/10 08:37:20;;;;;;;6.45;5.95;;;;;;;12.76;52.86;101150.78;5996467;23;20019;-70
2023/04/10 08:39:46;;;;;;;7.80;7.00;;;;;;;13.14;52.47;101182.06;5992281;23;20042;-71
2023/04/10 08:42:13;;;;;;;7.53;6.50;;;;;;;13.46;52.43;101195.28;5970372;23;20015;-72
2023/04/10 08:44:40;;;;;;;6.43;5.93;;;;;;;13.11;51.10;101091.78;6000705;23;20033;-70
2023/04/10 08:47:07;;;;;;;7.63;6.90;;;;;;;12.66;51.21;101011.81;5999151;23;20080;-71
2023/04/10 08:49:46;;;;;;;6.05;5.60;;;;;;;13.22;50.92;101088.56;5992635;23;20035;-70
2023/04/10 08:52:21;;;;;;;6.30;5.45;;;;;;;13.48;51.65;101137.19;5994127;23;20650;-71
2023/04/10 08:54:52;;;;;;;12.48;6.32;;;;;;;13.52;50.99;101113.19;5985066;23;20066;-71
2023/04/10 08:57:20;;;;;;;6.28;5.78;;;;;;;13.46;50.85;101087.19;5993280;23;20030;-71
2023/04/10 08:59:47;;;;;;;6.82;6.22;;;;;;;13.20;50.35;101021.94;5996628;23;20039;-71
2023/04/10 09:02:14;;;;;;;6.30;5.80;;;;;;;13.40;50.20;101055.91;5998155;23;20035;-72
2023/04/10 09:04:48;;;;;;;6.60;6.03;;;;;;;13.14;49.95;100996.78;5998764;23;20031;-74
2023/04/10 09:07:16;;;;;;;7.07;6.57;;;;;;;13.59;50.21;101086.47;5988455;23;20159;-70
2023/04/10 09:09:43;;;;;;;5.97;5.47;;;;;;;13.60;49.40;101022.25;5959370;23;20540;-68
2023/04/10 09:12:12;;;;;;;7.72;6.25;;;;;;;13.63;49.12;101046.66;5993954;23;20023;-71
2023/04/10 09:14:39;;;;;;;5.90;5.50;;;;;;;14.01;49.16;101091.00;5992335;23;20019;-67
2023/04/10 09:17:20;;;;;;;6.25;5.60;;;;;;;14.31;48.67;101092.69;5994848;23;20039;-69
2023/04/10 09:19:48;;;;;;;6.30;5.70;;;;;;;14.38;47.52;101030.66;6002124;23;20837;-70
2023/04/10 09:22:15;;;;;;;6.72;5.97;;;;;;;14.33;46.88;100993.13;5988959;23;20003;-69
2023/04/10 09:24:43;;;;;;;5.85;5.43;;;;;;;14.41;47.36;101038.38;5997675;23;20024;-68
2023/04/10 09:27:25;;;;;;;5.93;5.53;;;;;;;14.74;47.09;101061.00;5971228;23;20026;-69
2023/04/10 09:29:52;;;;;;;6.13;5.65;;;;;;;14.72;45.87;101031.19;6001415;23;20471;-69
2023/04/10 09:32:51;;;;;;;6.10;5.57;;;;;;;13.83;45.80;100868.72;5994386;23;20034;-69
2023/04/10 09:35:18;;;;;;;6.78;5.88;;;;;;;14.77;46.41;101050.22;5951124;23;20034;-69
2023/04/10 09:37:45;;;;;;;5.78;5.28;;;;;;;14.97;45.80;101051.56;5986445;23;20039;-66
2023/04/10 09:40:20;;;;;;;5.55;5.15;;;;;;;15.43;45.47;101060.91;5978183;23;20019;-69
2023/04/10 09:42:46;;;;;;;5.85;5.43;;;;;;;15.36;44.99;101005.78;5985203;23;20772;-69
2023/04/10 09:45:13;;;;;;;6.95;5.97;;;;;;;15.30;44.85;100992.97;5991485;23;20650;-68
2023/04/10 09:47:39;;;;;;;6.22;5.72;;;;;;;15.06;44.99;100953.19;5992360;23;20086;-69
2023/04/10 09:50:06;;;;;;;6.75;6.13;;;;;;;15.03;44.76;100953.38;5997982;23;20237;-68
2023/04/10 09:52:34;;;;;;;6.75;5.93;;;;;;;14.92;44.98;100954.09;6003603;23;20089;-71
2023/04/10 09:55:05;;;;;;;6.70;6.15;;;;;;;15.19;44.39;100936.50;5999034;23;20024;-73
2023/04/10 09:57:33;;;;;;;5.85;5.40;;;;;;;15.54;44.94;101039.91;5994295;23;20004;-66
2023/04/10 10:00:03;;;;;;;6.00;5.60;;;;;;;14.84;44.37;100853.34;5999719;23;20038;-69
2023/04/10 10:02:33;;;;;;;6.07;5.68;;;;;;;16.05;44.88;101031.97;5995614;23;20027;-71
2023/04/10 10:05:00;;;;;;;6.47;5.97;;;;;;;15.92;43.88;100960.53;6001056;23;20414;-69
2023/04/10 10:07:28;;;;;;;7.53;6.85;;;;;;;16.21;43.20;100984.09;5986909;23;20039;-69
2023/04/10 10:09:55;;;;;;;6.18;5.78;;;;;;;16.07;42.85;100947.16;6006428;23;20015;-66
2023/04/10 10:12:28;;;;;;;7.60;6.13;;;;;;;15.91;43.70;100927.06;5998685;23;20019;-67
2023/04/10 10:15:04;;;;;;;;;;;;;;;15.95;43.84;100935.66;6000893;23;20042;-66
2023/04/10 10:17:42;;;;;;;6.28;5.78;;;;;;;15.75;43.05;100905.28;5977327;23;19987;-66
2023/04/10 10:20:10;;;;;;;6.60;6.10;;;;;;;16.02;42.73;100921.03;5986042;23;20035;-67
2023/04/10 10:22:37;;;;;;;6.35;5.85;;;;;;;15.75;43.28;100884.13;6002031;23;20423;-67
2023/04/10 10:25:03;;;;;;;6.57;6.05;;;;;;;16.41;43.23;100955.31;5995353;23;20055;-67
2023/04/10 10:27:31;;;;;;;6.93;6.28;;;;;;;16.54;42.61;100921.69;5984401;23;20060;-68
2023/04/10 10:29:59;;;;;;;5.82;5.47;;;;;;;16.58;42.02;100925.81;5998646;23;20021;-72
2023/04/10 10:32:33;;;;;;;6.13;5.63;;;;;;;16.21;42.09;100875.50;5999075;23;20036;-71
2023/04/10 10:35:00;;;;;;;6.72;6.22;;;;;;;16.25;43.02;100907.91;5999554;23;20020;-70
2023/04/10 10:37:28;;;;;;;6.60;6.10;;;;;;;16.65;42.38;100918.25;5965377;23;20034;-70
2023/04/10 10:40:06;;;;;;;6.53;6.13;;;;;;;16.79;42.99;100947.22;6006325;23;20037;-71
2023/04/10 10:42:55;;;;;;;6.82;6.13;;;;;;;16.61;41.81;100846.06;5991289;23;20045;-71
2023/04/10 10:45:33;;;;;;;7.15;6.45;;;;;;;16.95;42.40;100941.63;6000425;23;20035;-71
2023/04/10 10:47:59;;;;;;;6.45;5.95;;;;;;;16.62;42.11;100833.66;5986446;23;20068;-71
2023/04/10 10:50:50;;;;;;;6.63;6.03;;;;;;;16.83;41.57;100865.69;6007148;23;20675;-70
2023/04/10 10:53:36;;;;;;;6.03;5.63;;;;;;;16.95;41.51;100862.94;5996145;23;20016;-71
2023/04/10 10:56:18;;;;;;;5.93;5.53;;;;;;;16.88;41.44;100850.28;6006528;23;20035;-71
2023/04/10 10:58:53;;;;;;;7.05;6.45;;;;;;;16.67;41.55;100802.38;5990540;23;20035;-72
2023/04/10 11:01:21;;;;;;;7.10;6.60;;;;;;;16.97;41.56;100860.19;5997167;23;20057;-71
2023/04/10 11:03:47;;;;;;;6.20;5.80;;;;;;;16.94;41.64;100841.88;5967544;23;20031;-70
2023/04/10 11:06:18;;;;;;;6.28;5.80;;;;;;;17.09;42.04;100876.97;5994217;23;20094;-71
2023/04/10 11:08:46;;;;;;;6.53;5.93;;;;;;;17.10;41.88;100858.28;5987848;23;20024;-72
2023/04/10 11:11:14;;;;;;;6.15;5.65;;;;;;;17.23;41.11;100842.25;6007390;23;20042;-70
2023/04/10 11:13:50;;;;;;;6.07;5.60;;;;;;;17.03;41.12;100792.59;5999236;23;20039;-71
2023/04/10 11:16:18;;;;;;;6.63;6.13;;;;;;;16.88;40.65;100749.56;6007530;23;20089;-69
2023/04/10 11:18:45;;;;;;;6.32;5.93;;;;;;;16.94;41.40;100799.44;5995725;23;20636;-71
2023/04/10 11:21:21;;;;;;;6.53;6.13;;;;;;;17.02;41.60;100812.09;5972323;23;20039;-71
2023/04/10 11:23:54;;;;;;;6.63;5.78;;;;;;;17.07;41.53;100801.97;6001712;23;20140;-71
2023/04/10 11:26:39;;;;;;;6.28;5.78;;;;;;;17.24;41.36;100833.34;5996598;23;20032;-71
2023/04/10 11:29:18;;;;;;;6.93;6.38;;;;;;;17.07;41.46;100792.22;5973576;23;20035;-70
2023/04/10 11:31:59;;;;;;;6.75;6.20;;;;;;;17.30;41.22;100832.88;5989046;23;20214;-71
2023/04/10 11:34:29;;;;;;;6.65;6.13;;;;;;;16.27;41.62;100657.06;5975227;23;20034;-71
2023/04/10 11:37:00;;;;;;;6.38;5.97;;;;;;;17.50;40.77;100819.81;5997298;23;20012;-71